createdAt,value
2022-08-16T16:01:43.731Z,20.20
2022-08-16T16:03:17.269Z,20.20
2022-08-16T16:04:49.267Z,19.20
2022-08-16T16:06:21.207Z,17.40
2022-08-16T16:08:09.937Z,19.60
2022-08-16T16:09:44.057Z,18.40
2022-08-16T16:11:17.381Z,18.40
2022-08-16T16:12:55.046Z,20.20
2022-08-16T16:14:26.871Z,7.20
2022-08-16T16:16:02.879Z,18.00
2022-08-16T16:17:35.600Z,17.40
2022-08-16T16:19:08.682Z,14.60
2022-08-16T16:20:47.418Z,18.40
2022-08-16T16:22:19.485Z,20.20
2022-08-16T16:23:54.814Z,17.80
2022-08-16T16:25:29.955Z,16.40
2022-08-16T16:27:02.101Z,20.00
2022-08-16T16:29:05.246Z,18.00
2022-08-16T16:30:33.168Z,20.00
2022-08-16T16:32:15.615Z,19.40
2022-08-16T16:33:50.438Z,20.00
2022-08-16T16:35:25.434Z,19.00
2022-08-16T16:36:57.266Z,16.00
2022-08-16T16:38:31.497Z,19.80
2022-08-16T16:40:03.805Z,18.60
2022-08-16T16:41:35.794Z,20.00
2022-08-16T16:43:08.670Z,20.00
2022-08-16T16:44:50.181Z,20.00
2022-08-16T16:46:40.718Z,18.60
2022-08-16T16:48:15.463Z,18.40
2022-08-16T16:49:50.705Z,17.00
2022-08-16T16:51:28.017Z,20.20
2022-08-16T16:53:00.073Z,21.00
2022-08-16T16:54:32.367Z,20.00
2022-08-16T16:56:04.255Z,20.20
2022-08-16T16:57:59.263Z,19.80
2022-08-16T16:59:31.152Z,17.80
2022-08-16T17:01:03.264Z,20.40
2022-08-16T17:02:41.333Z,19.40
2022-08-16T17:04:31.239Z,20.60
2022-08-16T17:06:09.084Z,19.20
2022-08-16T17:07:43.423Z,20.20
2022-08-16T17:09:15.307Z,19.40
2022-08-16T17:10:49.164Z,21.40
2022-08-16T17:12:25.166Z,21.40
2022-08-16T17:14:32.051Z,20.20
2022-08-16T17:16:06.092Z,20.20
2022-08-16T17:17:59.368Z,20.00
2022-08-16T17:19:33.720Z,19.00
2022-08-16T17:21:12.270Z,19.80
2022-08-16T17:22:47.330Z,21.80
2022-08-16T17:24:31.271Z,22.00
2022-08-16T17:26:11.886Z,21.00
2022-08-16T17:27:44.423Z,21.80
2022-08-16T17:29:23.591Z,20.00
2022-08-16T17:31:03.893Z,20.00
2022-08-16T17:32:47.018Z,21.80
2022-08-16T17:34:30.193Z,22.80
2022-08-16T17:36:03.516Z,21.00
2022-08-16T17:37:42.476Z,21.00
2022-08-16T17:39:23.966Z,21.60
2022-08-16T17:40:57.833Z,21.00
2022-08-16T17:42:33.049Z,18.60
2022-08-16T17:44:05.486Z,19.00
2022-08-16T17:45:39.236Z,21.00
2022-08-16T17:47:11.280Z,20.00
2022-08-16T17:48:42.981Z,22.40
2022-08-16T17:50:14.896Z,20.60
2022-08-16T17:51:47.766Z,22.20
2022-08-16T17:53:21.665Z,21.80
2022-08-16T17:54:53.448Z,21.60
2022-08-16T17:56:25.448Z,20.80
2022-08-16T17:57:57.411Z,16.80
2022-08-16T17:59:29.631Z,18.40
2022-08-16T18:01:01.844Z,21.20
2022-08-16T18:02:42.838Z,22.00
2022-08-16T18:04:49.142Z,22.00
2022-08-16T18:06:13.190Z,18.20
2022-08-16T18:07:44.986Z,22.00
2022-08-16T18:09:17.277Z,22.00
2022-08-16T18:10:48.976Z,23.40
2022-08-16T18:12:54.817Z,20.00
2022-08-16T18:14:15.037Z,19.80
2022-08-16T18:15:46.798Z,18.60
2022-08-16T18:17:18.829Z,22.20
2022-08-16T18:18:50.569Z,22.20
2022-08-16T18:20:41.038Z,23.00
2022-08-16T18:22:18.610Z,20.20
2022-08-16T18:23:50.319Z,23.40
2022-08-16T18:25:22.214Z,22.00
2022-08-16T18:26:53.972Z,22.00
2022-08-16T18:28:26.261Z,23.00
2022-08-16T18:30:01.104Z,20.00
2022-08-16T18:31:32.976Z,25.40
2022-08-16T18:33:04.782Z,25.20
2022-08-16T18:34:37.914Z,27.60
2022-08-16T18:36:20.462Z,30.20
2022-08-16T18:37:53.130Z,27.60
2022-08-16T18:39:24.945Z,31.20
2022-08-16T18:40:56.828Z,32.60
2022-08-16T18:42:28.571Z,31.00
2022-08-16T18:44:26.695Z,30.20
2022-08-16T18:45:53.028Z,23.00
2022-08-16T18:47:24.798Z,33.00
2022-08-16T18:48:57.049Z,31.20
2022-08-16T18:50:29.082Z,33.40
2022-08-16T18:52:25.752Z,33.60
2022-08-16T18:53:57.819Z,32.20
2022-08-16T18:55:33.538Z,33.40
2022-08-16T18:57:08.136Z,34.00
2022-08-16T18:58:40.091Z,33.80
2022-08-16T19:00:13.328Z,36.40
2022-08-16T19:01:45.133Z,37.80
2022-08-16T19:03:25.659Z,35.00
2022-08-16T19:04:58.618Z,36.40
2022-08-16T19:06:30.520Z,35.20
2022-08-16T19:08:03.719Z,38.40
2022-08-16T19:09:37.779Z,39.00
2022-08-16T19:11:10.351Z,41.40
2022-08-16T19:12:42.558Z,43.00
2022-08-16T19:14:14.672Z,42.00
2022-08-16T19:15:47.250Z,45.00
2022-08-16T19:17:19.011Z,43.25
2022-08-16T19:18:50.718Z,40.20
2022-08-16T19:20:23.922Z,44.50
2022-08-16T19:21:55.619Z,48.25
2022-08-16T19:23:29.333Z,48.25
2022-08-16T19:25:01.331Z,49.25
2022-08-16T19:26:33.567Z,48.75
2022-08-16T19:28:06.917Z,49.25
2022-08-16T19:29:38.740Z,55.75
2022-08-16T19:31:14.077Z,54.50
2022-08-16T19:32:47.174Z,51.75
2022-08-16T19:34:19.009Z,54.00
2022-08-16T19:35:50.741Z,57.25
2022-08-16T19:37:23.479Z,58.00
2022-08-16T19:38:55.220Z,57.00
2022-08-16T19:40:37.098Z,56.00
2022-08-16T19:42:18.828Z,62.25
2022-08-16T19:43:53.037Z,66.50
2022-08-16T19:45:25.116Z,62.75
2022-08-16T19:46:57.739Z,67.25
2022-08-16T19:48:29.450Z,67.25
2022-08-16T19:50:01.191Z,69.00
2022-08-16T19:51:32.977Z,69.00
2022-08-16T19:53:13.129Z,79.50
2022-08-16T19:54:52.316Z,80.60
2022-08-16T19:56:25.836Z,83.80
2022-08-16T19:57:57.867Z,84.80
2022-08-16T19:59:40.121Z,79.60
2022-08-16T20:01:14.578Z,88.25
2022-08-16T20:02:53.992Z,86.00
2022-08-16T20:04:26.916Z,90.25
2022-08-16T20:05:59.296Z,88.50
2022-08-16T20:07:31.128Z,94.00
2022-08-16T20:09:03.284Z,94.00
2022-08-16T20:10:35.072Z,97.50
2022-08-16T20:12:19.503Z,95.25
2022-08-16T20:13:51.251Z,97.25
2022-08-16T20:15:30.547Z,98.25
2022-08-16T20:17:02.314Z,98.00
2022-08-16T20:18:35.247Z,101.00
2022-08-16T20:20:08.208Z,94.25
2022-08-16T20:21:44.894Z,104.00
2022-08-16T20:23:24.488Z,103.75
2022-08-16T20:24:57.218Z,107.25
2022-08-16T20:26:29.616Z,105.50
2022-08-16T20:28:01.473Z,110.50
2022-08-16T20:31:29.651Z,121.50
2022-08-16T20:33:01.481Z,120.50
2022-08-16T20:34:33.254Z,127.75
2022-08-16T20:36:05.157Z,117.00
2022-08-16T20:37:38.842Z,123.25
2022-08-16T20:39:14.698Z,123.25
2022-08-16T20:40:46.507Z,127.50
2022-08-16T20:42:24.051Z,119.75
2022-08-16T20:43:55.867Z,125.25
2022-08-16T20:45:28.082Z,124.25
2022-08-16T20:47:00.093Z,129.50
2022-08-16T20:48:34.820Z,126.25
2022-08-16T20:50:07.008Z,133.75
2022-08-16T20:51:49.793Z,132.75
2022-08-16T20:53:23.814Z,134.75
2022-08-16T20:54:55.543Z,130.75
2022-08-16T20:56:27.456Z,137.75
2022-08-16T20:57:59.209Z,134.50
2022-08-16T20:59:31.051Z,125.00
2022-08-16T21:01:03.348Z,143.75
2022-08-16T21:02:35.131Z,132.00
2022-08-16T21:04:09.959Z,134.75
2022-08-16T21:05:46.657Z,142.00
2022-08-16T21:07:19.656Z,143.00
2022-08-16T21:08:54.105Z,141.67
2022-08-16T21:10:27.018Z,142.67
2022-08-16T21:12:01.026Z,142.33
2022-08-16T21:13:32.932Z,145.00
2022-08-16T21:15:08.028Z,146.67
2022-08-16T21:16:39.904Z,146.00
2022-08-16T21:18:11.844Z,144.33
2022-08-16T21:19:45.102Z,139.33
2022-08-16T21:21:20.251Z,143.33
2022-08-16T21:22:56.108Z,167.67
2022-08-16T21:24:28.119Z,176.00
2022-08-16T21:26:05.200Z,149.00
2022-08-16T21:28:39.159Z,173.00
2022-08-16T21:29:42.794Z,173.50
2022-08-16T21:31:15.883Z,174.75
2022-08-16T21:32:47.752Z,172.00
2022-08-16T21:34:19.575Z,188.50
2022-08-16T21:35:52.639Z,163.00
2022-08-16T21:37:24.445Z,185.75
2022-08-16T21:38:56.183Z,173.25
2022-08-16T21:40:29.374Z,166.00
2022-08-16T21:42:01.213Z,166.00
2022-08-16T21:43:33.503Z,165.00
2022-08-16T21:45:07.060Z,173.00
2022-08-16T21:46:38.825Z,162.33
2022-08-16T21:48:10.577Z,173.25
2022-08-16T21:49:42.329Z,173.75
2022-08-16T21:51:14.750Z,168.00
2022-08-16T21:52:46.553Z,179.50
2022-08-16T21:54:18.513Z,166.67
2022-08-16T21:55:53.435Z,164.00
2022-08-16T21:57:25.257Z,152.33
2022-08-16T21:58:57.057Z,163.00
2022-08-16T22:00:29.145Z,171.67
2022-08-16T22:02:00.982Z,149.00
2022-08-16T22:03:33.070Z,151.00
2022-08-16T22:05:05.749Z,145.33
2022-08-16T22:06:38.125Z,150.33
2022-08-16T22:08:09.991Z,146.33
2022-08-16T22:09:42.587Z,150.00
2022-08-16T22:11:14.314Z,147.33
2022-08-16T22:12:46.176Z,156.67
2022-08-16T22:14:20.161Z,146.67
2022-08-16T22:15:52.068Z,144.67
2022-08-16T22:17:23.845Z,147.67
2022-08-16T22:18:57.059Z,149.67
2022-08-16T22:20:28.967Z,131.00
2022-08-16T22:22:00.951Z,136.33
2022-08-16T22:23:34.473Z,142.33
2022-08-16T22:25:06.884Z,147.00
2022-08-16T22:26:42.996Z,139.67
2022-08-16T22:28:15.621Z,135.25
2022-08-16T22:29:47.387Z,147.33
2022-08-16T22:31:19.237Z,151.33
2022-08-16T22:32:54.038Z,131.25
2022-08-16T22:34:25.798Z,135.00
